sensor_id;sensor_type;location;lat;lon;timestamp;P1;durP1;ratioP1;P2;durP2;ratioP2
37609;SDS011;23457;51.966;8.230;2024-01-30T00:01:57;18.00;;;10.55;;
37609;SDS011;23457;51.966;8.230;2024-01-30T00:04:24;18.77;;;11.52;;
37609;SDS011;23457;51.966;8.230;2024-01-30T00:06:51;20.48;;;11.52;;
37609;SDS011;23457;51.966;8.230;2024-01-30T00:09:19;21.95;;;11.70;;
37609;SDS011;23457;51.966;8.230;2024-01-30T00:11:46;18.88;;;11.73;;
37609;SDS011;23457;51.966;8.230;2024-01-30T00:14:13;17.75;;;11.55;;
37609;SDS011;23457;51.966;8.230;2024-01-30T00:16:40;22.52;;;12.88;;
37609;SDS011;23457;51.966;8.230;2024-01-30T00:19:07;18.30;;;11.65;;
37609;SDS011;23457;51.966;8.230;2024-01-30T00:21:35;17.75;;;10.80;;
37609;SDS011;23457;51.966;8.230;2024-01-30T00:24:01;18.58;;;12.05;;
37609;SDS011;23457;51.966;8.230;2024-01-30T00:26:28;19.98;;;11.43;;
37609;SDS011;23457;51.966;8.230;2024-01-30T00:28:55;19.20;;;11.77;;
37609;SDS011;23457;51.966;8.230;2024-01-30T00:31:25;21.88;;;11.60;;
37609;SDS011;23457;51.966;8.230;2024-01-30T00:33:52;23.63;;;12.52;;
37609;SDS011;23457;51.966;8.230;2024-01-30T00:36:19;22.17;;;12.73;;
37609;SDS011;23457;51.966;8.230;2024-01-30T00:38:45;17.65;;;11.25;;
37609;SDS011;23457;51.966;8.230;2024-01-30T00:41:12;24.02;;;11.93;;
37609;SDS011;23457;51.966;8.230;2024-01-30T00:43:39;17.45;;;11.50;;
37609;SDS011;23457;51.966;8.230;2024-01-30T00:46:05;18.80;;;10.88;;
37609;SDS011;23457;51.966;8.230;2024-01-30T00:48:32;18.70;;;11.43;;
37609;SDS011;23457;51.966;8.230;2024-01-30T00:50:59;19.15;;;10.82;;
37609;SDS011;23457;51.966;8.230;2024-01-30T00:53:26;17.65;;;11.32;;
37609;SDS011;23457;51.966;8.230;2024-01-30T00:55:52;18.65;;;11.32;;
37609;SDS011;23457;51.966;8.230;2024-01-30T00:58:19;18.80;;;11.10;;
37609;SDS011;23457;51.966;8.230;2024-01-30T01:00:46;18.88;;;11.40;;
37609;SDS011;23457;51.966;8.230;2024-01-30T01:03:13;17.33;;;11.18;;
37609;SDS011;23457;51.966;8.230;2024-01-30T01:05:40;20.23;;;11.65;;
37609;SDS011;23457;51.966;8.230;2024-01-30T01:08:07;22.15;;;12.30;;
37609;SDS011;23457;51.966;8.230;2024-01-30T01:10:35;17.67;;;11.35;;
37609;SDS011;23457;51.966;8.230;2024-01-30T01:13:02;17.80;;;11.82;;
37609;SDS011;23457;51.966;8.230;2024-01-30T01:15:29;18.27;;;11.80;;
37609;SDS011;23457;51.966;8.230;2024-01-30T01:17:56;20.30;;;11.82;;
37609;SDS011;23457;51.966;8.230;2024-01-30T01:20:23;20.70;;;12.25;;
37609;SDS011;23457;51.966;8.230;2024-01-30T01:22:49;19.67;;;11.35;;
37609;SDS011;23457;51.966;8.230;2024-01-30T01:25:16;17.98;;;11.00;;
37609;SDS011;23457;51.966;8.230;2024-01-30T01:27:43;18.38;;;10.85;;
37609;SDS011;23457;51.966;8.230;2024-01-30T01:30:17;18.08;;;11.50;;
37609;SDS011;23457;51.966;8.230;2024-01-30T01:32:55;19.15;;;10.77;;
37609;SDS011;23457;51.966;8.230;2024-01-30T01:35:24;17.25;;;11.40;;
37609;SDS011;23457;51.966;8.230;2024-01-30T01:37:52;20.55;;;11.52;;
37609;SDS011;23457;51.966;8.230;2024-01-30T01:40:23;19.63;;;11.10;;
37609;SDS011;23457;51.966;8.230;2024-01-30T01:42:50;21.52;;;12.48;;
37609;SDS011;23457;51.966;8.230;2024-01-30T01:45:21;19.73;;;12.20;;
37609;SDS011;23457;51.966;8.230;2024-01-30T01:47:49;17.05;;;11.63;;
37609;SDS011;23457;51.966;8.230;2024-01-30T01:52:48;19.08;;;10.95;;
37609;SDS011;23457;51.966;8.230;2024-01-30T01:55:16;20.50;;;11.98;;
37609;SDS011;23457;51.966;8.230;2024-01-30T01:57:48;22.70;;;11.40;;
37609;SDS011;23457;51.966;8.230;2024-01-30T02:00:15;17.60;;;11.20;;
37609;SDS011;23457;51.966;8.230;2024-01-30T02:02:43;19.15;;;11.50;;
37609;SDS011;23457;51.966;8.230;2024-01-30T02:05:11;16.98;;;11.30;;
37609;SDS011;23457;51.966;8.230;2024-01-30T02:07:38;23.08;;;12.52;;
37609;SDS011;23457;51.966;8.230;2024-01-30T02:10:07;17.17;;;11.90;;
37609;SDS011;23457;51.966;8.230;2024-01-30T02:12:36;25.27;;;12.75;;
37609;SDS011;23457;51.966;8.230;2024-01-30T02:15:03;18.63;;;11.60;;
37609;SDS011;23457;51.966;8.230;2024-01-30T02:17:31;17.55;;;11.40;;
37609;SDS011;23457;51.966;8.230;2024-01-30T02:19:58;17.35;;;11.93;;
37609;SDS011;23457;51.966;8.230;2024-01-30T02:22:26;19.25;;;12.05;;
37609;SDS011;23457;51.966;8.230;2024-01-30T02:24:53;22.05;;;12.07;;
37609;SDS011;23457;51.966;8.230;2024-01-30T02:27:20;16.98;;;11.93;;
37609;SDS011;23457;51.966;8.230;2024-01-30T02:29:47;21.10;;;12.73;;
37609;SDS011;23457;51.966;8.230;2024-01-30T02:32:14;17.85;;;11.50;;
37609;SDS011;23457;51.966;8.230;2024-01-30T02:34:43;17.85;;;11.55;;
37609;SDS011;23457;51.966;8.230;2024-01-30T02:37:10;21.45;;;12.35;;
37609;SDS011;23457;51.966;8.230;2024-01-30T02:39:37;21.48;;;11.93;;
37609;SDS011;23457;51.966;8.230;2024-01-30T02:42:04;20.88;;;12.35;;
37609;SDS011;23457;51.966;8.230;2024-01-30T02:44:31;19.55;;;11.70;;
37609;SDS011;23457;51.966;8.230;2024-01-30T02:46:58;18.33;;;12.30;;
37609;SDS011;23457;51.966;8.230;2024-01-30T02:49:24;18.90;;;12.32;;
37609;SDS011;23457;51.966;8.230;2024-01-30T02:51:52;20.20;;;13.00;;
37609;SDS011;23457;51.966;8.230;2024-01-30T02:54:35;21.08;;;12.77;;
37609;SDS011;23457;51.966;8.230;2024-01-30T02:57:01;24.67;;;13.25;;
37609;SDS011;23457;51.966;8.230;2024-01-30T02:59:28;18.08;;;12.68;;
37609;SDS011;23457;51.966;8.230;2024-01-30T03:01:55;18.55;;;12.75;;
37609;SDS011;23457;51.966;8.230;2024-01-30T03:04:22;23.65;;;12.70;;
37609;SDS011;23457;51.966;8.230;2024-01-30T03:06:49;22.50;;;13.10;;
37609;SDS011;23457;51.966;8.230;2024-01-30T03:09:16;22.08;;;12.98;;
37609;SDS011;23457;51.966;8.230;2024-01-30T03:11:44;24.98;;;13.07;;
37609;SDS011;23457;51.966;8.230;2024-01-30T03:14:10;23.52;;;12.75;;
37609;SDS011;23457;51.966;8.230;2024-01-30T03:16:37;21.10;;;13.50;;
37609;SDS011;23457;51.966;8.230;2024-01-30T03:19:05;22.02;;;12.70;;
37609;SDS011;23457;51.966;8.230;2024-01-30T03:21:34;20.60;;;12.98;;
37609;SDS011;23457;51.966;8.230;2024-01-30T03:24:01;26.42;;;14.60;;
37609;SDS011;23457;51.966;8.230;2024-01-30T03:26:28;21.67;;;13.38;;
37609;SDS011;23457;51.966;8.230;2024-01-30T03:28:55;20.90;;;13.10;;
37609;SDS011;23457;51.966;8.230;2024-01-30T03:31:21;20.70;;;13.27;;
37609;SDS011;23457;51.966;8.230;2024-01-30T03:33:48;21.45;;;13.52;;
37609;SDS011;23457;51.966;8.230;2024-01-30T03:36:15;21.00;;;13.52;;
37609;SDS011;23457;51.966;8.230;2024-01-30T03:38:43;19.63;;;13.35;;
37609;SDS011;23457;51.966;8.230;2024-01-30T03:41:10;19.88;;;13.55;;
37609;SDS011;23457;51.966;8.230;2024-01-30T03:43:37;21.20;;;13.63;;
37609;SDS011;23457;51.966;8.230;2024-01-30T03:46:03;23.75;;;14.90;;
37609;SDS011;23457;51.966;8.230;2024-01-30T03:48:30;22.38;;;14.15;;
37609;SDS011;23457;51.966;8.230;2024-01-30T03:50:57;26.38;;;14.35;;
37609;SDS011;23457;51.966;8.230;2024-01-30T03:53:24;23.83;;;14.75;;
37609;SDS011;23457;51.966;8.230;2024-01-30T03:55:51;24.33;;;15.20;;
37609;SDS011;23457;51.966;8.230;2024-01-30T03:58:17;25.20;;;15.07;;
37609;SDS011;23457;51.966;8.230;2024-01-30T04:00:44;24.58;;;14.45;;
37609;SDS011;23457;51.966;8.230;2024-01-30T04:03:11;20.55;;;13.65;;
37609;SDS011;23457;51.966;8.230;2024-01-30T04:05:38;25.70;;;15.65;;
37609;SDS011;23457;51.966;8.230;2024-01-30T04:08:05;24.48;;;14.75;;
37609;SDS011;23457;51.966;8.230;2024-01-30T04:10:32;23.35;;;14.38;;
37609;SDS011;23457;51.966;8.230;2024-01-30T04:12:59;27.48;;;15.02;;
37609;SDS011;23457;51.966;8.230;2024-01-30T04:15:26;28.38;;;15.55;;
37609;SDS011;23457;51.966;8.230;2024-01-30T04:17:53;23.80;;;14.60;;
37609;SDS011;23457;51.966;8.230;2024-01-30T04:20:20;23.73;;;15.80;;
37609;SDS011;23457;51.966;8.230;2024-01-30T04:22:47;22.77;;;14.20;;
37609;SDS011;23457;51.966;8.230;2024-01-30T04:25:14;23.58;;;15.30;;
37609;SDS011;23457;51.966;8.230;2024-01-30T04:27:40;24.88;;;15.50;;
37609;SDS011;23457;51.966;8.230;2024-01-30T04:30:08;26.92;;;15.05;;
37609;SDS011;23457;51.966;8.230;2024-01-30T04:32:35;26.23;;;15.57;;
37609;SDS011;23457;51.966;8.230;2024-01-30T04:35:03;23.52;;;15.07;;
37609;SDS011;23457;51.966;8.230;2024-01-30T04:37:36;22.83;;;14.55;;
37609;SDS011;23457;51.966;8.230;2024-01-30T04:40:03;25.15;;;14.00;;
37609;SDS011;23457;51.966;8.230;2024-01-30T04:42:30;23.38;;;15.18;;
37609;SDS011;23457;51.966;8.230;2024-01-30T04:44:57;24.73;;;14.63;;
37609;SDS011;23457;51.966;8.230;2024-01-30T04:47:23;23.77;;;14.45;;
37609;SDS011;23457;51.966;8.230;2024-01-30T04:49:51;25.75;;;15.18;;
37609;SDS011;23457;51.966;8.230;2024-01-30T04:52:18;21.70;;;14.45;;
37609;SDS011;23457;51.966;8.230;2024-01-30T04:54:44;23.85;;;14.98;;
37609;SDS011;23457;51.966;8.230;2024-01-30T04:57:11;27.52;;;15.07;;
37609;SDS011;23457;51.966;8.230;2024-01-30T04:59:39;24.35;;;14.35;;
37609;SDS011;23457;51.966;8.230;2024-01-30T05:02:06;24.00;;;14.93;;
37609;SDS011;23457;51.966;8.230;2024-01-30T05:04:33;26.90;;;15.85;;
37609;SDS011;23457;51.966;8.230;2024-01-30T05:07:00;24.80;;;14.95;;
37609;SDS011;23457;51.966;8.230;2024-01-30T05:09:27;24.40;;;14.82;;
37609;SDS011;23457;51.966;8.230;2024-01-30T05:11:54;29.95;;;15.80;;
37609;SDS011;23457;51.966;8.230;2024-01-30T05:14:21;24.70;;;15.18;;
37609;SDS011;23457;51.966;8.230;2024-01-30T05:16:48;24.70;;;15.48;;
37609;SDS011;23457;51.966;8.230;2024-01-30T05:19:14;22.23;;;15.25;;
37609;SDS011;23457;51.966;8.230;2024-01-30T05:21:41;27.02;;;15.40;;
37609;SDS011;23457;51.966;8.230;2024-01-30T05:24:08;26.38;;;14.30;;
37609;SDS011;23457;51.966;8.230;2024-01-30T05:26:36;31.70;;;16.25;;
37609;SDS011;23457;51.966;8.230;2024-01-30T05:29:03;25.20;;;15.48;;
37609;SDS011;23457;51.966;8.230;2024-01-30T05:31:30;29.17;;;16.95;;
37609;SDS011;23457;51.966;8.230;2024-01-30T05:33:57;28.30;;;16.73;;
37609;SDS011;23457;51.966;8.230;2024-01-30T05:36:24;29.95;;;15.85;;
37609;SDS011;23457;51.966;8.230;2024-01-30T05:38:51;27.13;;;16.23;;
37609;SDS011;23457;51.966;8.230;2024-01-30T05:41:18;28.88;;;16.25;;
37609;SDS011;23457;51.966;8.230;2024-01-30T05:43:45;24.50;;;15.65;;
37609;SDS011;23457;51.966;8.230;2024-01-30T05:46:11;25.60;;;15.70;;
37609;SDS011;23457;51.966;8.230;2024-01-30T05:48:38;25.92;;;15.80;;
37609;SDS011;23457;51.966;8.230;2024-01-30T05:51:06;27.20;;;16.90;;
37609;SDS011;23457;51.966;8.230;2024-01-30T05:53:34;25.70;;;15.57;;
37609;SDS011;23457;51.966;8.230;2024-01-30T05:56:01;31.67;;;17.35;;
37609;SDS011;23457;51.966;8.230;2024-01-30T05:58:28;29.48;;;16.70;;
37609;SDS011;23457;51.966;8.230;2024-01-30T06:00:55;24.30;;;16.23;;
37609;SDS011;23457;51.966;8.230;2024-01-30T06:03:22;27.70;;;16.38;;
37609;SDS011;23457;51.966;8.230;2024-01-30T06:05:49;26.90;;;15.55;;
37609;SDS011;23457;51.966;8.230;2024-01-30T06:08:16;25.27;;;16.13;;
37609;SDS011;23457;51.966;8.230;2024-01-30T06:10:42;26.60;;;16.15;;
37609;SDS011;23457;51.966;8.230;2024-01-30T06:13:09;24.90;;;15.55;;
37609;SDS011;23457;51.966;8.230;2024-01-30T06:15:36;29.17;;;16.38;;
37609;SDS011;23457;51.966;8.230;2024-01-30T06:18:02;26.27;;;14.95;;
37609;SDS011;23457;51.966;8.230;2024-01-30T06:20:29;27.40;;;15.70;;
37609;SDS011;23457;51.966;8.230;2024-01-30T06:22:56;31.90;;;17.35;;
37609;SDS011;23457;51.966;8.230;2024-01-30T06:25:23;28.42;;;16.40;;
37609;SDS011;23457;51.966;8.230;2024-01-30T06:27:50;31.17;;;18.27;;
37609;SDS011;23457;51.966;8.230;2024-01-30T06:30:17;35.38;;;19.15;;
37609;SDS011;23457;51.966;8.230;2024-01-30T06:32:44;40.05;;;21.13;;
37609;SDS011;23457;51.966;8.230;2024-01-30T06:35:11;53.97;;;25.20;;
37609;SDS011;23457;51.966;8.230;2024-01-30T06:37:39;61.47;;;32.65;;
37609;SDS011;23457;51.966;8.230;2024-01-30T06:40:05;30.10;;;18.27;;
37609;SDS011;23457;51.966;8.230;2024-01-30T06:42:36;35.95;;;20.25;;
37609;SDS011;23457;51.966;8.230;2024-01-30T06:45:03;39.80;;;24.50;;
37609;SDS011;23457;51.966;8.230;2024-01-30T06:47:29;30.95;;;18.83;;
37609;SDS011;23457;51.966;8.230;2024-01-30T06:49:57;31.05;;;16.88;;
37609;SDS011;23457;51.966;8.230;2024-01-30T06:52:24;29.17;;;16.98;;
37609;SDS011;23457;51.966;8.230;2024-01-30T06:54:51;28.20;;;16.65;;
37609;SDS011;23457;51.966;8.230;2024-01-30T06:57:17;32.28;;;18.13;;
37609;SDS011;23457;51.966;8.230;2024-01-30T06:59:44;28.33;;;17.42;;
37609;SDS011;23457;51.966;8.230;2024-01-30T07:02:11;31.35;;;18.08;;
37609;SDS011;23457;51.966;8.230;2024-01-30T07:04:38;37.65;;;18.00;;
37609;SDS011;23457;51.966;8.230;2024-01-30T07:07:11;41.33;;;21.30;;
37609;SDS011;23457;51.966;8.230;2024-01-30T07:09:40;31.52;;;19.15;;
37609;SDS011;23457;51.966;8.230;2024-01-30T07:12:07;39.60;;;20.92;;
37609;SDS011;23457;51.966;8.230;2024-01-30T07:14:34;37.45;;;21.05;;
37609;SDS011;23457;51.966;8.230;2024-01-30T07:17:02;38.47;;;20.45;;
37609;SDS011;23457;51.966;8.230;2024-01-30T07:19:28;31.27;;;17.63;;
37609;SDS011;23457;51.966;8.230;2024-01-30T07:21:55;31.35;;;18.45;;
37609;SDS011;23457;51.966;8.230;2024-01-30T07:24:22;45.78;;;24.35;;
37609;SDS011;23457;51.966;8.230;2024-01-30T07:26:49;39.63;;;22.33;;
37609;SDS011;23457;51.966;8.230;2024-01-30T07:29:15;32.47;;;18.63;;
37609;SDS011;23457;51.966;8.230;2024-01-30T07:31:42;34.90;;;20.70;;
37609;SDS011;23457;51.966;8.230;2024-01-30T07:34:09;31.80;;;18.15;;
37609;SDS011;23457;51.966;8.230;2024-01-30T07:36:37;31.40;;;18.50;;
37609;SDS011;23457;51.966;8.230;2024-01-30T07:39:05;27.60;;;15.75;;
37609;SDS011;23457;51.966;8.230;2024-01-30T07:41:31;27.77;;;17.10;;
37609;SDS011;23457;51.966;8.230;2024-01-30T07:43:58;28.60;;;17.02;;
37609;SDS011;23457;51.966;8.230;2024-01-30T07:46:25;24.77;;;15.95;;
37609;SDS011;23457;51.966;8.230;2024-01-30T07:48:52;35.05;;;17.38;;
37609;SDS011;23457;51.966;8.230;2024-01-30T07:51:21;26.90;;;12.97;;
37609;SDS011;23457;51.966;8.230;2024-01-30T07:53:48;29.33;;;17.38;;
37609;SDS011;23457;51.966;8.230;2024-01-30T07:56:21;29.35;;;16.83;;
37609;SDS011;23457;51.966;8.230;2024-01-30T07:58:49;26.40;;;17.08;;
37609;SDS011;23457;51.966;8.230;2024-01-30T08:01:15;32.22;;;18.95;;
37609;SDS011;23457;51.966;8.230;2024-01-30T08:03:42;28.95;;;17.13;;
37609;SDS011;23457;51.966;8.230;2024-01-30T08:06:09;29.00;;;17.35;;
37609;SDS011;23457;51.966;8.230;2024-01-30T08:08:36;28.88;;;16.95;;
37609;SDS011;23457;51.966;8.230;2024-01-30T08:11:04;29.52;;;18.40;;
37609;SDS011;23457;51.966;8.230;2024-01-30T08:13:31;27.88;;;17.60;;
37609;SDS011;23457;51.966;8.230;2024-01-30T08:15:58;33.25;;;18.05;;
37609;SDS011;23457;51.966;8.230;2024-01-30T08:18:24;24.83;;;16.27;;
37609;SDS011;23457;51.966;8.230;2024-01-30T08:20:51;29.35;;;17.73;;
37609;SDS011;23457;51.966;8.230;2024-01-30T08:23:18;31.73;;;17.70;;
37609;SDS011;23457;51.966;8.230;2024-01-30T08:25:45;31.98;;;18.20;;
37609;SDS011;23457;51.966;8.230;2024-01-30T08:28:11;27.48;;;17.45;;
37609;SDS011;23457;51.966;8.230;2024-01-30T08:30:38;26.90;;;17.23;;
37609;SDS011;23457;51.966;8.230;2024-01-30T08:33:06;25.02;;;16.80;;
37609;SDS011;23457;51.966;8.230;2024-01-30T08:35:33;26.77;;;17.00;;
37609;SDS011;23457;51.966;8.230;2024-01-30T08:38:00;34.72;;;15.98;;
37609;SDS011;23457;51.966;8.230;2024-01-30T08:40:27;29.27;;;15.68;;
37609;SDS011;23457;51.966;8.230;2024-01-30T08:42:55;24.52;;;15.68;;
37609;SDS011;23457;51.966;8.230;2024-01-30T08:45:22;23.85;;;13.98;;
37609;SDS011;23457;51.966;8.230;2024-01-30T08:47:48;23.70;;;15.55;;
37609;SDS011;23457;51.966;8.230;2024-01-30T08:50:15;23.73;;;14.82;;
37609;SDS011;23457;51.966;8.230;2024-01-30T08:52:42;23.80;;;14.57;;
37609;SDS011;23457;51.966;8.230;2024-01-30T08:55:11;26.55;;;15.07;;
37609;SDS011;23457;51.966;8.230;2024-01-30T08:57:38;24.00;;;14.57;;
37609;SDS011;23457;51.966;8.230;2024-01-30T09:00:05;24.88;;;15.02;;
37609;SDS011;23457;51.966;8.230;2024-01-30T09:02:35;27.15;;;14.88;;
37609;SDS011;23457;51.966;8.230;2024-01-30T09:05:02;23.08;;;14.25;;
37609;SDS011;23457;51.966;8.230;2024-01-30T09:07:29;20.45;;;13.73;;
37609;SDS011;23457;51.966;8.230;2024-01-30T09:09:56;23.10;;;14.05;;
37609;SDS011;23457;51.966;8.230;2024-01-30T09:12:23;24.98;;;12.85;;
37609;SDS011;23457;51.966;8.230;2024-01-30T09:14:50;19.23;;;12.00;;
37609;SDS011;23457;51.966;8.230;2024-01-30T09:17:16;20.58;;;12.93;;
37609;SDS011;23457;51.966;8.230;2024-01-30T09:19:43;20.05;;;13.20;;
37609;SDS011;23457;51.966;8.230;2024-01-30T09:22:10;21.33;;;11.82;;
37609;SDS011;23457;51.966;8.230;2024-01-30T09:24:37;20.13;;;12.70;;
37609;SDS011;23457;51.966;8.230;2024-01-30T09:27:04;19.98;;;11.25;;
37609;SDS011;23457;51.966;8.230;2024-01-30T09:29:31;19.55;;;11.75;;
37609;SDS011;23457;51.966;8.230;2024-01-30T09:31:59;17.80;;;11.52;;
37609;SDS011;23457;51.966;8.230;2024-01-30T09:34:26;22.90;;;11.77;;
37609;SDS011;23457;51.966;8.230;2024-01-30T09:36:53;16.63;;;10.88;;
37609;SDS011;23457;51.966;8.230;2024-01-30T09:39:20;22.48;;;11.38;;
37609;SDS011;23457;51.966;8.230;2024-01-30T09:41:52;17.95;;;11.35;;
37609;SDS011;23457;51.966;8.230;2024-01-30T09:44:26;27.60;;;14.25;;
37609;SDS011;23457;51.966;8.230;2024-01-30T09:46:55;21.42;;;13.73;;
37609;SDS011;23457;51.966;8.230;2024-01-30T09:49:24;27.00;;;13.40;;
37609;SDS011;23457;51.966;8.230;2024-01-30T09:51:53;26.27;;;13.63;;
37609;SDS011;23457;51.966;8.230;2024-01-30T09:54:20;31.80;;;15.60;;
37609;SDS011;23457;51.966;8.230;2024-01-30T09:56:48;30.27;;;14.60;;
37609;SDS011;23457;51.966;8.230;2024-01-30T09:59:15;21.25;;;12.25;;
37609;SDS011;23457;51.966;8.230;2024-01-30T10:01:42;20.38;;;12.35;;
37609;SDS011;23457;51.966;8.230;2024-01-30T10:04:10;23.05;;;12.77;;
37609;SDS011;23457;51.966;8.230;2024-01-30T10:06:37;25.08;;;12.85;;
37609;SDS011;23457;51.966;8.230;2024-01-30T10:09:05;20.88;;;12.90;;
37609;SDS011;23457;51.966;8.230;2024-01-30T10:11:32;18.15;;;11.82;;
37609;SDS011;23457;51.966;8.230;2024-01-30T10:13:59;15.98;;;11.00;;
37609;SDS011;23457;51.966;8.230;2024-01-30T10:16:26;17.17;;;10.98;;
37609;SDS011;23457;51.966;8.230;2024-01-30T10:18:53;21.50;;;11.50;;
37609;SDS011;23457;51.966;8.230;2024-01-30T10:21:21;17.73;;;11.43;;
37609;SDS011;23457;51.966;8.230;2024-01-30T10:23:48;19.92;;;12.35;;
37609;SDS011;23457;51.966;8.230;2024-01-30T10:26:19;29.08;;;13.32;;
37609;SDS011;23457;51.966;8.230;2024-01-30T10:28:47;25.77;;;14.38;;
37609;SDS011;23457;51.966;8.230;2024-01-30T10:31:18;24.13;;;12.20;;
37609;SDS011;23457;51.966;8.230;2024-01-30T10:33:45;23.55;;;12.35;;
37609;SDS011;23457;51.966;8.230;2024-01-30T10:36:14;20.38;;;11.13;;
37609;SDS011;23457;51.966;8.230;2024-01-30T10:38:46;23.80;;;10.98;;
37609;SDS011;23457;51.966;8.230;2024-01-30T10:41:16;26.25;;;12.00;;
37609;SDS011;23457;51.966;8.230;2024-01-30T10:43:54;19.80;;;10.93;;
37609;SDS011;23457;51.966;8.230;2024-01-30T10:46:29;16.30;;;9.90;;
37609;SDS011;23457;51.966;8.230;2024-01-30T10:48:58;17.30;;;10.32;;
37609;SDS011;23457;51.966;8.230;2024-01-30T10:51:27;19.98;;;11.65;;
37609;SDS011;23457;51.966;8.230;2024-01-30T10:53:55;18.50;;;10.02;;
37609;SDS011;23457;51.966;8.230;2024-01-30T10:58:51;17.45;;;11.32;;
37609;SDS011;23457;51.966;8.230;2024-01-30T11:01:20;21.75;;;12.07;;
37609;SDS011;23457;51.966;8.230;2024-01-30T11:03:50;19.40;;;11.55;;
37609;SDS011;23457;51.966;8.230;2024-01-30T11:06:24;20.50;;;11.13;;
37609;SDS011;23457;51.966;8.230;2024-01-30T11:09:02;20.17;;;10.68;;
37609;SDS011;23457;51.966;8.230;2024-01-30T11:14:27;17.90;;;8.70;;
37609;SDS011;23457;51.966;8.230;2024-01-30T11:16:59;14.18;;;8.48;;
37609;SDS011;23457;51.966;8.230;2024-01-30T11:19:33;13.52;;;8.13;;
37609;SDS011;23457;51.966;8.230;2024-01-30T11:22:00;13.82;;;8.05;;
37609;SDS011;23457;51.966;8.230;2024-01-30T11:24:27;17.73;;;7.85;;
37609;SDS011;23457;51.966;8.230;2024-01-30T11:26:57;12.93;;;7.03;;
37609;SDS011;23457;51.966;8.230;2024-01-30T11:29:28;16.17;;;7.40;;
37609;SDS011;23457;51.966;8.230;2024-01-30T11:31:56;13.43;;;8.23;;
37609;SDS011;23457;51.966;8.230;2024-01-30T11:34:24;13.98;;;6.60;;
37609;SDS011;23457;51.966;8.230;2024-01-30T11:36:52;11.38;;;7.38;;
37609;SDS011;23457;51.966;8.230;2024-01-30T11:39:25;13.32;;;7.13;;
37609;SDS011;23457;51.966;8.230;2024-01-30T11:41:55;19.45;;;10.45;;
37609;SDS011;23457;51.966;8.230;2024-01-30T11:44:22;15.98;;;8.30;;
37609;SDS011;23457;51.966;8.230;2024-01-30T11:46:50;17.60;;;8.88;;
37609;SDS011;23457;51.966;8.230;2024-01-30T11:49:18;15.63;;;8.43;;
37609;SDS011;23457;51.966;8.230;2024-01-30T11:51:45;13.52;;;8.27;;
37609;SDS011;23457;51.966;8.230;2024-01-30T11:54:12;14.00;;;7.40;;
37609;SDS011;23457;51.966;8.230;2024-01-30T11:56:40;13.98;;;7.85;;
37609;SDS011;23457;51.966;8.230;2024-01-30T11:59:07;15.45;;;7.72;;
37609;SDS011;23457;51.966;8.230;2024-01-30T12:01:34;13.57;;;7.55;;
37609;SDS011;23457;51.966;8.230;2024-01-30T12:04:01;10.93;;;6.88;;
37609;SDS011;23457;51.966;8.230;2024-01-30T12:06:28;14.80;;;6.45;;
37609;SDS011;23457;51.966;8.230;2024-01-30T12:08:56;14.05;;;7.30;;
37609;SDS011;23457;51.966;8.230;2024-01-30T12:11:24;11.60;;;6.60;;
37609;SDS011;23457;51.966;8.230;2024-01-30T12:13:51;18.77;;;7.97;;
37609;SDS011;23457;51.966;8.230;2024-01-30T12:16:19;15.80;;;7.00;;
37609;SDS011;23457;51.966;8.230;2024-01-30T12:18:47;15.70;;;6.22;;
37609;SDS011;23457;51.966;8.230;2024-01-30T12:21:17;11.77;;;6.50;;
37609;SDS011;23457;51.966;8.230;2024-01-30T12:23:44;13.07;;;6.57;;
37609;SDS011;23457;51.966;8.230;2024-01-30T12:26:11;11.00;;;6.30;;
37609;SDS011;23457;51.966;8.230;2024-01-30T12:28:47;11.68;;;6.88;;
37609;SDS011;23457;51.966;8.230;2024-01-30T12:31:14;16.77;;;7.25;;
37609;SDS011;23457;51.966;8.230;2024-01-30T12:33:41;12.02;;;6.28;;
37609;SDS011;23457;51.966;8.230;2024-01-30T12:36:08;14.65;;;7.00;;
37609;SDS011;23457;51.966;8.230;2024-01-30T12:38:35;12.43;;;6.38;;
37609;SDS011;23457;51.966;8.230;2024-01-30T12:41:02;14.82;;;7.43;;
37609;SDS011;23457;51.966;8.230;2024-01-30T12:43:29;16.85;;;7.03;;
37609;SDS011;23457;51.966;8.230;2024-01-30T12:46:04;9.88;;;6.80;;
37609;SDS011;23457;51.966;8.230;2024-01-30T12:48:32;15.52;;;7.82;;
37609;SDS011;23457;51.966;8.230;2024-01-30T12:50:59;11.65;;;6.97;;
37609;SDS011;23457;51.966;8.230;2024-01-30T12:53:27;14.38;;;8.10;;
37609;SDS011;23457;51.966;8.230;2024-01-30T12:55:53;13.98;;;7.50;;
37609;SDS011;23457;51.966;8.230;2024-01-30T12:58:20;15.32;;;7.65;;
37609;SDS011;23457;51.966;8.230;2024-01-30T13:00:48;16.33;;;7.55;;
37609;SDS011;23457;51.966;8.230;2024-01-30T13:03:15;14.90;;;7.57;;
37609;SDS011;23457;51.966;8.230;2024-01-30T13:05:42;13.38;;;7.35;;
37609;SDS011;23457;51.966;8.230;2024-01-30T13:08:09;13.30;;;7.25;;
37609;SDS011;23457;51.966;8.230;2024-01-30T13:10:35;14.52;;;7.65;;
37609;SDS011;23457;51.966;8.230;2024-01-30T13:13:02;17.73;;;7.82;;
37609;SDS011;23457;51.966;8.230;2024-01-30T13:15:29;21.67;;;8.05;;
37609;SDS011;23457;51.966;8.230;2024-01-30T13:17:55;15.30;;;7.85;;
37609;SDS011;23457;51.966;8.230;2024-01-30T13:20:22;12.63;;;7.50;;
37609;SDS011;23457;51.966;8.230;2024-01-30T13:22:49;18.08;;;8.52;;
37609;SDS011;23457;51.966;8.230;2024-01-30T13:25:16;19.50;;;8.00;;
37609;SDS011;23457;51.966;8.230;2024-01-30T13:27:43;17.15;;;8.88;;
37609;SDS011;23457;51.966;8.230;2024-01-30T13:30:10;17.70;;;8.57;;
37609;SDS011;23457;51.966;8.230;2024-01-30T13:32:37;13.43;;;8.43;;
37609;SDS011;23457;51.966;8.230;2024-01-30T13:35:05;19.35;;;8.68;;
37609;SDS011;23457;51.966;8.230;2024-01-30T13:37:32;19.70;;;9.00;;
37609;SDS011;23457;51.966;8.230;2024-01-30T13:39:59;17.40;;;8.52;;
37609;SDS011;23457;51.966;8.230;2024-01-30T13:42:28;16.45;;;8.90;;
37609;SDS011;23457;51.966;8.230;2024-01-30T13:44:54;19.38;;;9.43;;
37609;SDS011;23457;51.966;8.230;2024-01-30T13:47:21;15.23;;;8.48;;
37609;SDS011;23457;51.966;8.230;2024-01-30T13:49:48;16.27;;;8.20;;
37609;SDS011;23457;51.966;8.230;2024-01-30T13:52:15;18.33;;;8.10;;
37609;SDS011;23457;51.966;8.230;2024-01-30T13:54:42;15.48;;;8.18;;
37609;SDS011;23457;51.966;8.230;2024-01-30T13:57:09;16.70;;;7.95;;
37609;SDS011;23457;51.966;8.230;2024-01-30T13:59:37;20.38;;;8.48;;
37609;SDS011;23457;51.966;8.230;2024-01-30T14:02:05;13.03;;;7.80;;
37609;SDS011;23457;51.966;8.230;2024-01-30T14:04:33;15.10;;;8.23;;
37609;SDS011;23457;51.966;8.230;2024-01-30T14:07:00;14.48;;;7.93;;
37609;SDS011;23457;51.966;8.230;2024-01-30T14:09:30;18.15;;;8.30;;
37609;SDS011;23457;51.966;8.230;2024-01-30T14:11:58;16.15;;;7.93;;
37609;SDS011;23457;51.966;8.230;2024-01-30T14:14:25;17.05;;;7.72;;
37609;SDS011;23457;51.966;8.230;2024-01-30T14:16:52;16.23;;;7.80;;
37609;SDS011;23457;51.966;8.230;2024-01-30T14:19:19;18.30;;;8.07;;
37609;SDS011;23457;51.966;8.230;2024-01-30T14:21:45;14.02;;;7.75;;
37609;SDS011;23457;51.966;8.230;2024-01-30T14:24:12;16.45;;;8.18;;
37609;SDS011;23457;51.966;8.230;2024-01-30T14:26:39;14.13;;;7.70;;
37609;SDS011;23457;51.966;8.230;2024-01-30T14:29:06;14.65;;;7.65;;
37609;SDS011;23457;51.966;8.230;2024-01-30T14:31:32;17.95;;;8.07;;
37609;SDS011;23457;51.966;8.230;2024-01-30T14:33:59;20.75;;;8.38;;